Time;durP1;ratioP1;P1;durP2;ratioP2;P2;SDS_P1;SDS_P2;PMS_P1;PMS_P2;Temp;Humidity;BMP_temperature;BMP_pressure;BME280_temperature;BME280_humidity;BME280_pressure;Samples;Min_cycle;Max_cycle;Signal;HPM_P1;HPM_P2
2023/06/18 00:01:05;;;;;;;5.13;4.50;;;;;;;;;;5060063;28;20128;-67
2023/06/18 00:03:30;;;;;;;5.07;4.53;;;;;;;;;;5064891;28;20293;-65
2023/06/18 00:05:56;;;;;;;5.83;4.43;;;;;;;;;;5036103;28;20032;-71
2023/06/18 00:08:21;;;;;;;5.20;4.70;;;;;;;;;;5060585;28;20982;-70
2023/06/18 00:10:46;;;;;;;5.25;4.75;;;;;;;;;;5044461;28;20958;-66
2023/06/18 00:13:12;;;;;;;5.47;4.97;;;;;;;;;;5060344;28;20084;-71
2023/06/18 00:15:37;;;;;;;6.90;5.40;;;;;;;;;;5059323;28;20274;-70
2023/06/18 00:18:02;;;;;;;6.13;5.20;;;;;;;;;;5033015;28;20044;-69
2023/06/18 00:20:27;;;;;;;8.38;5.72;;;;;;;;;;5015961;28;20273;-71
2023/06/18 00:22:53;;;;;;;6.77;5.50;;;;;;;;;;5042869;28;20032;-71
2023/06/18 00:25:18;;;;;;;7.30;5.97;;;;;;;;;;5044745;28;20282;-72
2023/06/18 00:27:43;;;;;;;6.65;5.40;;;;;;;;;;5033933;28;20056;-68
2023/06/18 00:30:09;;;;;;;6.53;5.87;;;;;;;;;;5030019;28;20147;-67
2023/06/18 00:32:34;;;;;;;6.35;5.75;;;;;;;;;;5047386;28;20322;-67
2023/06/18 00:35:00;;;;;;;6.32;5.72;;;;;;;;;;5030040;28;20037;-70
2023/06/18 00:37:27;;;;;;;6.50;5.90;;;;;;;;;;5035629;28;20037;-71
2023/06/18 00:39:53;;;;;;;7.43;6.30;;;;;;;;;;5046103;28;20040;-68
2023/06/18 00:42:20;;;;;;;6.57;5.88;;;;;;;;;;5028848;28;20070;-72
2023/06/18 00:44:45;;;;;;;5.75;5.15;;;;;;;;;;5030410;28;20041;-68
2023/06/18 00:47:13;;;;;;;6.53;5.90;;;;;;;;;;5014399;28;20040;-67
2023/06/18 00:49:42;;;;;;;6.85;6.20;;;;;;;;;;5030661;28;20047;-67
2023/06/18 00:52:09;;;;;;;6.72;6.07;;;;;;;;;;5033779;28;20124;-73
2023/06/18 00:54:35;;;;;;;6.40;5.47;;;;;;;;;;5019513;28;20390;-70
2023/06/18 00:57:00;;;;;;;6.53;5.88;;;;;;;;;;5043483;28;20065;-69
2023/06/18 00:59:27;;;;;;;6.57;5.88;;;;;;;;;;5036364;28;20041;-70
2023/06/18 01:01:53;;;;;;;6.85;5.88;;;;;;;;;;5044386;28;20152;-70
2023/06/18 01:04:22;;;;;;;6.82;5.95;;;;;;;;;;5051944;28;20134;-74
2023/06/18 01:06:53;;;;;;;7.27;6.57;;;;;;;;;;5025437;28;20441;-73
2023/06/18 01:09:22;;;;;;;7.18;6.40;;;;;;;;;;5063089;28;20546;-67
2023/06/18 01:11:51;;;;;;;7.57;6.32;;;;;;;;;;5030937;28;20421;-69
2023/06/18 01:14:21;;;;;;;7.50;6.70;;;;;;;;;;5043476;28;20044;-70
2023/06/18 01:16:46;;;;;;;6.57;5.97;;;;;;;;;;5036210;28;20084;-65
2023/06/18 01:19:15;;;;;;;7.40;6.07;;;;;;;;;;5034424;28;20032;-70
2023/06/18 01:21:40;;;;;;;7.28;6.57;;;;;;;;;;5035254;28;20090;-70
2023/06/18 01:24:10;;;;;;;6.90;6.13;;;;;;;;;;5021321;28;20044;-71
2023/06/18 01:26:35;;;;;;;7.97;6.28;;;;;;;;;;5019466;28;20302;-69
2023/06/18 01:29:00;;;;;;;7.03;6.28;;;;;;;;;;5028300;28;20384;-70
2023/06/18 01:31:26;;;;;;;7.40;6.57;;;;;;;;;;5024996;28;20053;-69
2023/06/18 01:33:53;;;;;;;7.72;6.10;;;;;;;;;;5026439;28;20043;-71
2023/06/18 01:36:34;;;;;;;7.10;6.35;;;;;;;;;;5056089;28;20400;-73
2023/06/18 01:39:06;;;;;;;7.82;7.03;;;;;;;;;;5040343;28;20075;-70
2023/06/18 01:41:32;;;;;;;7.13;6.43;;;;;;;;;;5042026;28;20206;-71
2023/06/18 01:43:58;;;;;;;7.33;6.47;;;;;;;;;;5032994;28;20087;-71
2023/06/18 01:46:23;;;;;;;7.40;6.60;;;;;;;;;;5041525;28;20048;-73
2023/06/18 01:48:57;;;;;;;7.53;6.77;;;;;;;;;;5051501;28;20437;-71
2023/06/18 01:51:23;;;;;;;7.10;6.40;;;;;;;;;;5059839;28;20291;-71
2023/06/18 01:53:49;;;;;;;7.60;6.80;;;;;;;;;;5054964;28;20106;-68
2023/06/18 01:56:14;;;;;;;7.80;7.00;;;;;;;;;;5048137;28;20227;-68
2023/06/18 01:58:42;;;;;;;8.23;6.78;;;;;;;;;;5054391;28;20041;-70
2023/06/18 02:01:09;;;;;;;7.95;6.80;;;;;;;;;;5064292;28;20037;-68
2023/06/18 02:03:35;;;;;;;8.15;7.05;;;;;;;;;;5042456;28;20046;-67
2023/06/18 02:06:00;;;;;;;7.70;6.60;;;;;;;;;;5065006;28;20123;-72
2023/06/18 02:08:26;;;;;;;8.00;7.20;;;;;;;;;;5036097;28;20433;-71
2023/06/18 02:10:51;;;;;;;7.93;7.13;;;;;;;;;;5019364;28;20772;-73
2023/06/18 02:13:16;;;;;;;7.60;6.88;;;;;;;;;;5051520;28;20131;-74
2023/06/18 02:15:41;;;;;;;7.77;6.97;;;;;;;;;;5042667;28;20448;-68
2023/06/18 02:18:07;;;;;;;8.23;7.20;;;;;;;;;;5058952;28;20820;-71
2023/06/18 02:20:33;;;;;;;7.95;7.15;;;;;;;;;;5038708;28;20067;-72
2023/06/18 02:22:58;;;;;;;8.07;7.28;;;;;;;;;;5020067;28;20416;-70
2023/06/18 02:25:28;;;;;;;7.95;7.15;;;;;;;;;;5037055;28;20148;-71
2023/06/18 02:27:57;;;;;;;8.20;7.35;;;;;;;;;;5059449;28;20041;-68
2023/06/18 02:30:22;;;;;;;8.07;7.20;;;;;;;;;;5037176;28;20124;-72
2023/06/18 02:32:48;;;;;;;8.20;7.40;;;;;;;;;;5014482;28;20136;-70
2023/06/18 02:35:14;;;;;;;8.30;7.47;;;;;;;;;;5046764;28;20418;-66
2023/06/18 02:37:39;;;;;;;8.68;7.78;;;;;;;;;;5055109;28;20029;-70
2023/06/18 02:40:06;;;;;;;8.70;7.75;;;;;;;;;;5059067;28;20437;-68
2023/06/18 02:42:31;;;;;;;7.95;7.15;;;;;;;;;;5051344;28;20032;-68
2023/06/18 02:44:57;;;;;;;8.68;7.40;;;;;;;;;;5060993;28;20035;-69
2023/06/18 02:47:22;;;;;;;8.48;7.57;;;;;;;;;;5056379;28;20095;-70
2023/06/18 02:49:47;;;;;;;8.83;7.93;;;;;;;;;;5053874;28;20036;-71
2023/06/18 02:52:12;;;;;;;8.30;7.40;;;;;;;;;;5073272;28;21065;-68
2023/06/18 02:54:38;;;;;;;8.50;7.70;;;;;;;;;;5035598;28;20361;-72
2023/06/18 02:57:03;;;;;;;9.50;8.15;;;;;;;;;;5059644;28;20262;-72
2023/06/18 02:59:29;;;;;;;8.88;7.85;;;;;;;;;;5032707;28;20049;-70
2023/06/18 03:01:54;;;;;;;8.82;7.90;;;;;;;;;;5011229;28;20052;-67
2023/06/18 03:04:19;;;;;;;8.70;7.23;;;;;;;;;;5040699;28;20132;-69
2023/06/18 03:06:45;;;;;;;8.70;7.80;;;;;;;;;;5044943;28;20033;-70
2023/06/18 03:09:10;;;;;;;8.85;7.95;;;;;;;;;;5065885;28;20586;-69
2023/06/18 03:11:35;;;;;;;8.70;7.80;;;;;;;;;;5045234;28;20025;-71
2023/06/18 03:14:01;;;;;;;9.67;7.90;;;;;;;;;;5055149;28;20143;-65
2023/06/18 03:16:26;;;;;;;9.50;8.10;;;;;;;;;;5045868;28;20275;-69
2023/06/18 03:18:51;;;;;;;8.45;7.65;;;;;;;;;;5045813;28;20274;-71
2023/06/18 03:21:17;;;;;;;8.32;7.40;;;;;;;;;;5010713;28;20123;-70
2023/06/18 03:23:43;;;;;;;9.13;8.23;;;;;;;;;;5027858;28;20060;-72
2023/06/18 03:26:08;;;;;;;8.80;7.90;;;;;;;;;;5063595;28;20286;-66
2023/06/18 03:28:33;;;;;;;8.20;7.40;;;;;;;;;;5035451;28;21108;-68
2023/06/18 03:30:59;;;;;;;8.45;7.65;;;;;;;;;;5063185;28;20060;-70
2023/06/18 03:33:28;;;;;;;8.63;7.72;;;;;;;;;;5019502;28;20044;-68
2023/06/18 03:35:54;;;;;;;8.45;7.63;;;;;;;;;;5040775;28;20091;-72
2023/06/18 03:38:19;;;;;;;8.88;7.95;;;;;;;;;;5031639;28;20041;-71
2023/06/18 03:40:44;;;;;;;8.83;7.93;;;;;;;;;;5025905;28;20045;-69
2023/06/18 03:43:10;;;;;;;9.30;8.40;;;;;;;;;;5044526;28;21165;-73
2023/06/18 03:45:35;;;;;;;8.52;7.63;;;;;;;;;;5057500;28;20447;-65
2023/06/18 03:48:00;;;;;;;8.60;7.80;;;;;;;;;;5043555;28;20795;-65
2023/06/18 03:50:25;;;;;;;9.45;8.15;;;;;;;;;;5029684;28;20444;-72
2023/06/18 03:52:51;;;;;;;9.40;8.40;;;;;;;;;;5051681;28;20481;-69
2023/06/18 03:55:16;;;;;;;9.20;8.30;;;;;;;;;;5065553;28;20346;-71
2023/06/18 03:57:41;;;;;;;9.15;8.25;;;;;;;;;;5044936;28;20309;-68
2023/06/18 04:00:09;;;;;;;8.17;7.37;;;;;;;;;;5062259;28;20047;-72
2023/06/18 04:02:34;;;;;;;9.32;8.30;;;;;;;;;;5028262;28;20037;-71
2023/06/18 04:04:59;;;;;;;8.68;7.80;;;;;;;;;;5046217;28;20918;-70
2023/06/18 04:07:25;;;;;;;10.73;8.00;;;;;;;;;;5062801;28;20037;-71
2023/06/18 04:09:50;;;;;;;8.73;7.90;;;;;;;;;;5045151;28;20385;-70
2023/06/18 04:12:15;;;;;;;8.90;8.00;;;;;;;;;;5032668;28;20279;-72
2023/06/18 04:14:40;;;;;;;8.97;8.07;;;;;;;;;;5063163;28;20811;-68
2023/06/18 04:17:06;;;;;;;9.05;8.15;;;;;;;;;;5069036;28;20299;-73
2023/06/18 04:19:31;;;;;;;9.45;8.10;;;;;;;;;;5042734;28;20036;-69
2023/06/18 04:21:57;;;;;;;8.52;7.57;;;;;;;;;;5064494;28;20036;-68
2023/06/18 04:24:22;;;;;;;8.95;8.07;;;;;;;;;;5060716;28;20024;-73
2023/06/18 04:26:47;;;;;;;8.60;7.80;;;;;;;;;;5045580;28;20036;-72
2023/06/18 04:29:12;;;;;;;8.83;7.93;;;;;;;;;;5055307;28;20032;-68
2023/06/18 04:31:38;;;;;;;9.23;8.30;;;;;;;;;;5033891;28;20090;-69
2023/06/18 04:34:03;;;;;;;9.00;8.10;;;;;;;;;;5049324;28;20060;-70
2023/06/18 04:36:28;;;;;;;9.10;7.87;;;;;;;;;;5015976;28;20780;-68
2023/06/18 04:38:53;;;;;;;9.35;8.35;;;;;;;;;;5048189;28;20323;-68
2023/06/18 04:41:19;;;;;;;9.17;8.23;;;;;;;;;;5051207;28;20443;-68
2023/06/18 04:43:44;;;;;;;9.43;8.40;;;;;;;;;;5050444;28;20291;-69
2023/06/18 04:46:09;;;;;;;9.40;8.00;;;;;;;;;;5051218;28;20287;-66
2023/06/18 04:48:34;;;;;;;9.10;8.20;;;;;;;;;;5032185;28;20127;-65
2023/06/18 04:51:00;;;;;;;8.53;7.67;;;;;;;;;;5049126;28;20287;-64
2023/06/18 04:53:25;;;;;;;9.65;8.75;;;;;;;;;;5036028;28;20299;-69
2023/06/18 04:55:50;;;;;;;8.68;7.53;;;;;;;;;;5048701;28;20517;-71
2023/06/18 04:58:16;;;;;;;10.07;7.73;;;;;;;;;;5015459;28;20037;-69
2023/06/18 05:00:41;;;;;;;9.13;8.23;;;;;;;;;;5036756;28;20472;-71
2023/06/18 05:03:06;;;;;;;9.50;8.60;;;;;;;;;;5029921;28;20336;-73
2023/06/18 05:05:32;;;;;;;10.47;8.30;;;;;;;;;;5050196;28;20290;-75
2023/06/18 05:07:57;;;;;;;9.00;8.10;;;;;;;;;;5031549;28;20301;-72
2023/06/18 05:10:22;;;;;;;8.23;7.43;;;;;;;;;;5033085;28;20029;-77
2023/06/18 05:12:47;;;;;;;9.02;8.13;;;;;;;;;;5020365;28;20406;-66
2023/06/18 05:15:13;;;;;;;8.82;7.88;;;;;;;;;;5048079;28;20052;-65
2023/06/18 05:17:38;;;;;;;9.10;8.20;;;;;;;;;;5048817;28;20486;-74
2023/06/18 05:20:04;;;;;;;9.23;8.17;;;;;;;;;;5020206;28;20487;-67
2023/06/18 05:22:29;;;;;;;8.77;7.95;;;;;;;;;;5018768;28;20339;-71
2023/06/18 05:24:55;;;;;;;8.60;7.70;;;;;;;;;;5037263;28;20418;-74
2023/06/18 05:27:20;;;;;;;9.60;7.88;;;;;;;;;;5021017;28;20048;-71
2023/06/18 05:29:45;;;;;;;10.60;9.07;;;;;;;;;;5041132;28;20025;-72
2023/06/18 05:32:11;;;;;;;10.03;8.57;;;;;;;;;;5048247;28;20747;-72
2023/06/18 05:34:36;;;;;;;9.43;8.45;;;;;;;;;;5036145;28;20291;-69
2023/06/18 05:37:01;;;;;;;8.90;8.00;;;;;;;;;;5029506;28;20047;-66
2023/06/18 05:39:26;;;;;;;9.47;7.80;;;;;;;;;;5028253;28;20032;-66
2023/06/18 05:41:52;;;;;;;9.18;8.27;;;;;;;;;;5048250;28;20310;-69
2023/06/18 05:44:17;;;;;;;9.48;8.48;;;;;;;;;;5046846;28;20037;-70
2023/06/18 05:46:42;;;;;;;9.48;8.48;;;;;;;;;;5019662;28;20047;-70
2023/06/18 05:49:09;;;;;;;8.90;8.00;;;;;;;;;;5013125;28;20032;-70
2023/06/18 05:51:35;;;;;;;9.27;8.38;;;;;;;;;;5018668;28;20098;-67
2023/06/18 05:54:00;;;;;;;9.05;8.15;;;;;;;;;;5035446;28;20124;-66
2023/06/18 05:56:25;;;;;;;9.05;8.15;;;;;;;;;;5030073;28;20045;-69
2023/06/18 05:58:51;;;;;;;9.95;8.95;;;;;;;;;;5047680;28;20059;-71
2023/06/18 06:01:16;;;;;;;9.68;8.65;;;;;;;;;;5031165;28;20029;-66
2023/06/18 06:03:41;;;;;;;10.02;8.88;;;;;;;;;;5053558;28;20401;-66
2023/06/18 06:06:06;;;;;;;10.33;9.10;;;;;;;;;;5052247;28;20025;-69
2023/06/18 06:08:32;;;;;;;10.53;9.03;;;;;;;;;;5053747;28;20091;-68
2023/06/18 06:10:58;;;;;;;9.82;8.68;;;;;;;;;;5022286;28;20296;-71
2023/06/18 06:13:23;;;;;;;9.63;8.65;;;;;;;;;;5054666;28;20718;-69
2023/06/18 06:15:48;;;;;;;11.82;9.25;;;;;;;;;;5053087;28;20123;-70
2023/06/18 06:18:14;;;;;;;10.43;9.00;;;;;;;;;;5053028;28;20037;-70
2023/06/18 06:20:39;;;;;;;9.98;8.98;;;;;;;;;;5035483;28;20322;-65
2023/06/18 06:23:04;;;;;;;12.88;9.35;;;;;;;;;;5054279;28;20179;-70
2023/06/18 06:25:30;;;;;;;10.03;8.67;;;;;;;;;;5054044;28;20040;-68
2023/06/18 06:27:55;;;;;;;10.40;9.27;;;;;;;;;;5053000;28;20056;-69
2023/06/18 06:30:20;;;;;;;10.57;9.43;;;;;;;;;;5020589;28;20040;-71
2023/06/18 06:32:45;;;;;;;12.15;9.38;;;;;;;;;;5053875;28;20832;-70
2023/06/18 06:35:11;;;;;;;10.38;8.60;;;;;;;;;;5023438;28;20082;-65
2023/06/18 06:37:36;;;;;;;10.18;9.10;;;;;;;;;;5053448;28;20495;-68
2023/06/18 06:40:02;;;;;;;10.10;8.60;;;;;;;;;;5021569;28;20460;-73
2023/06/18 06:42:27;;;;;;;10.70;9.50;;;;;;;;;;5050981;28;20291;-75
2023/06/18 06:44:53;;;;;;;10.63;9.52;;;;;;;;;;5051209;28;21870;-72
2023/06/18 06:47:18;;;;;;;10.50;9.40;;;;;;;;;;5031605;28;22229;-71
2023/06/18 06:49:45;;;;;;;10.68;9.40;;;;;;;;;;5049791;28;20297;-77
2023/06/18 06:52:10;;;;;;;10.75;9.45;;;;;;;;;;5038332;28;20632;-69
2023/06/18 06:54:35;;;;;;;10.20;8.90;;;;;;;;;;5022965;28;20024;-73
2023/06/18 06:57:01;;;;;;;10.10;9.07;;;;;;;;;;5053686;28;20095;-72
2023/06/18 06:59:26;;;;;;;10.50;9.40;;;;;;;;;;5036502;28;21347;-69
2023/06/18 07:01:51;;;;;;;12.63;9.77;;;;;;;;;;5034354;28;20364;-71
2023/06/18 07:04:16;;;;;;;11.07;9.13;;;;;;;;;;5051964;28;20430;-72
2023/06/18 07:06:42;;;;;;;10.70;9.60;;;;;;;;;;5033317;28;20428;-68
2023/06/18 07:09:07;;;;;;;10.80;9.32;;;;;;;;;;5036342;28;20295;-68
2023/06/18 07:11:33;;;;;;;10.13;8.60;;;;;;;;;;5039983;22;20049;-71
2023/06/18 07:13:59;;;;;;;10.70;8.93;;;;;;;;;;5060413;28;21788;-66
2023/06/18 07:16:24;;;;;;;9.93;8.88;;;;;;;;;;5052601;28;20033;-66
2023/06/18 07:18:49;;;;;;;9.90;8.52;;;;;;;;;;5063350;28;20037;-67
2023/06/18 07:21:14;;;;;;;11.57;8.75;;;;;;;;;;5019021;28;20495;-67
2023/06/18 07:23:40;;;;;;;10.43;8.30;;;;;;;;;;5063383;28;20041;-69
2023/06/18 07:26:05;;;;;;;10.53;8.33;;;;;;;;;;5024693;28;20499;-67
2023/06/18 07:28:30;;;;;;;9.40;8.50;;;;;;;;;;5038410;28;20299;-65
2023/06/18 07:30:55;;;;;;;9.30;8.07;;;;;;;;;;5050596;22;20053;-67
2023/06/18 07:33:21;;;;;;;9.32;8.18;;;;;;;;;;5030455;28;20059;-66
2023/06/18 07:35:46;;;;;;;9.77;8.00;;;;;;;;;;5049950;28;20098;-65
2023/06/18 07:38:11;;;;;;;9.90;8.90;;;;;;;;;;5048359;28;20033;-66
2023/06/18 07:40:38;;;;;;;9.80;8.80;;;;;;;;;;5050413;28;20282;-71
2023/06/18 07:43:03;;;;;;;10.18;7.85;;;;;;;;;;5031949;28;20548;-66
2023/06/18 07:45:28;;;;;;;11.13;8.32;;;;;;;;;;5045223;28;20041;-69
2023/06/18 07:47:54;;;;;;;9.67;8.30;;;;;;;;;;5014363;28;20047;-67
2023/06/18 07:50:19;;;;;;;8.90;8.00;;;;;;;;;;5048015;28;20424;-67
2023/06/18 07:52:44;;;;;;;8.55;7.65;;;;;;;;;;5048971;28;20296;-69
2023/06/18 07:55:10;;;;;;;9.70;8.43;;;;;;;;;;5048166;28;20435;-68
2023/06/18 07:57:35;;;;;;;9.32;8.32;;;;;;;;;;5050133;28;20659;-67
2023/06/18 08:00:01;;;;;;;9.57;8.50;;;;;;;;;;5049398;28;20041;-66
2023/06/18 08:02:26;;;;;;;9.07;7.83;;;;;;;;;;5049965;28;20036;-67
2023/06/18 08:04:51;;;;;;;9.43;8.00;;;;;;;;;;5062333;28;20891;-67
2023/06/18 08:07:16;;;;;;;9.03;7.80;;;;;;;;;;5048930;28;20287;-66
2023/06/18 08:09:42;;;;;;;8.77;7.73;;;;;;;;;;5048081;28;20282;-68
2023/06/18 08:12:07;;;;;;;8.87;7.67;;;;;;;;;;5050629;28;20773;-69
2023/06/18 08:14:32;;;;;;;9.77;8.02;;;;;;;;;;5013819;28;20602;-67
2023/06/18 08:16:58;;;;;;;9.25;7.20;;;;;;;;;;5061708;28;22060;-68
2023/06/18 08:19:23;;;;;;;11.60;7.40;;;;;;;;;;5047960;28;20038;-68
2023/06/18 08:21:49;;;;;;;8.70;7.90;;;;;;;;;;5049586;28;20705;-67
2023/06/18 08:24:14;;;;;;;10.85;8.02;;;;;;;;;;5051466;28;20459;-67
2023/06/18 08:26:40;;;;;;;9.63;7.53;;;;;;;;;;5049518;28;20473;-66
2023/06/18 08:29:05;;;;;;;9.32;6.95;;;;;;;;;;5029108;28;20283;-67
2023/06/18 08:31:31;;;;;;;9.13;7.93;;;;;;;;;;5045698;28;20431;-67
2023/06/18 08:33:56;;;;;;;8.82;7.10;;;;;;;;;;5063399;28;20488;-67
2023/06/18 08:36:22;;;;;;;9.73;7.70;;;;;;;;;;5028624;28;20637;-65
2023/06/18 08:38:47;;;;;;;8.45;7.63;;;;;;;;;;5027061;28;20039;-67
2023/06/18 08:41:12;;;;;;;8.25;7.35;;;;;;;;;;5045634;28;20182;-66
2023/06/18 08:43:38;;;;;;;10.13;7.85;;;;;;;;;;5046928;28;20033;-68
2023/06/18 08:46:10;;;;;;;9.27;7.18;;;;;;;;;;5027078;28;20037;-69
2023/06/18 08:48:48;;;;;;;11.98;7.28;;;;;;;;;;5045777;28;20043;-68
2023/06/18 08:51:13;;;;;;;10.57;8.65;;;;;;;;;;5046922;28;20048;-66
2023/06/18 08:53:40;;;;;;;12.00;7.97;;;;;;;;;;5047418;28;20091;-67
2023/06/18 08:56:05;;;;;;;11.63;8.48;;;;;;;;;;5027168;28;20049;-68
2023/06/18 08:58:30;;;;;;;9.43;8.10;;;;;;;;;;5043438;28;20039;-66
2023/06/18 09:00:56;;;;;;;9.80;7.60;;;;;;;;;;5045342;28;20070;-65
2023/06/18 09:03:21;;;;;;;12.25;8.02;;;;;;;;;;5044088;28;20298;-66
2023/06/18 09:05:47;;;;;;;9.25;7.50;;;;;;;;;;5046225;28;20120;-67
2023/06/18 09:08:12;;;;;;;9.82;7.68;;;;;;;;;;5047710;28;20170;-69
2023/06/18 09:10:37;;;;;;;11.57;7.93;;;;;;;;;;5046912;28;20051;-67
2023/06/18 09:13:02;;;;;;;11.32;7.35;;;;;;;;;;5049395;28;20174;-68
2023/06/18 09:15:27;;;;;;;8.23;7.40;;;;;;;;;;5048782;28;20097;-68
2023/06/18 09:17:53;;;;;;;9.02;7.53;;;;;;;;;;5050801;28;20033;-67
2023/06/18 09:20:19;;;;;;;9.95;7.65;;;;;;;;;;5054566;28;20117;-68
2023/06/18 09:22:47;;;;;;;10.48;7.50;;;;;;;;;;5029201;28;20047;-69
2023/06/18 09:25:22;;;;;;;8.18;7.32;;;;;;;;;;5030405;28;20123;-66
2023/06/18 09:27:47;;;;;;;10.05;7.55;;;;;;;;;;5048978;28;20044;-66
2023/06/18 09:30:19;;;;;;;8.43;7.40;;;;;;;;;;5028237;28;20020;-66
2023/06/18 09:32:45;;;;;;;9.85;7.32;;;;;;;;;;5047805;28;20650;-68
2023/06/18 09:35:10;;;;;;;8.77;6.70;;;;;;;;;;5048338;28;20143;-66
2023/06/18 09:37:36;;;;;;;8.82;7.15;;;;;;;;;;5050526;28;20478;-65
2023/06/18 09:40:07;;;;;;;9.07;7.03;;;;;;;;;;5054252;28;20456;-68
2023/06/18 09:42:32;;;;;;;8.27;6.70;;;;;;;;;;5053836;28;20024;-67
2023/06/18 09:44:57;;;;;;;7.90;7.10;;;;;;;;;;5035374;28;20139;-66
2023/06/18 09:47:23;;;;;;;8.63;7.23;;;;;;;;;;5049538;28;20587;-65
2023/06/18 09:49:48;;;;;;;8.75;7.55;;;;;;;;;;5032788;28;20264;-68
2023/06/18 09:52:13;;;;;;;9.00;7.30;;;;;;;;;;5016724;28;20140;-62
2023/06/18 09:54:39;;;;;;;9.73;6.87;;;;;;;;;;5051900;28;20310;-67
2023/06/18 09:57:06;;;;;;;7.65;6.60;;;;;;;;;;5034484;28;20279;-68
2023/06/18 09:59:31;;;;;;;7.47;6.38;;;;;;;;;;5066366;28;20071;-69
2023/06/18 10:01:56;;;;;;;7.50;6.28;;;;;;;;;;5051744;28;20127;-68
2023/06/18 10:04:22;;;;;;;7.23;6.43;;;;;;;;;;5033434;28;20045;-67
2023/06/18 10:06:51;;;;;;;7.78;6.40;;;;;;;;;;5051619;28;20033;-68
2023/06/18 10:09:16;;;;;;;7.55;6.63;;;;;;;;;;5065824;28;20060;-67
2023/06/18 10:11:42;;;;;;;7.85;6.40;;;;;;;;;;5050754;28;20060;-68
2023/06/18 10:14:08;;;;;;;7.83;6.23;;;;;;;;;;5032944;28;20449;-66
2023/06/18 10:16:34;;;;;;;7.47;6.53;;;;;;;;;;5052026;28;20032;-69
2023/06/18 10:19:09;;;;;;;8.55;6.47;;;;;;;;;;5051242;28;20726;-70
2023/06/18 10:21:36;;;;;;;9.68;6.65;;;;;;;;;;5032858;28;20056;-68
2023/06/18 10:24:15;;;;;;;7.28;6.57;;;;;;;;;;5048440;28;20137;-67
2023/06/18 10:26:41;;;;;;;;;;;;;;;;;;5016303;28;20354;-69
2023/06/18 10:29:06;;;;;;;8.10;5.72;;;;;;;;;;5065350;28;20570;-71
2023/06/18 10:31:31;;;;;;;6.65;6.05;;;;;;;;;;5015536;28;20040;-69
2023/06/18 10:33:57;;;;;;;22.58;6.47;;;;;;;;;;5031564;28;20076;-70
2023/06/18 10:36:22;;;;;;;17.10;6.65;;;;;;;;;;5048586;28;20036;-70
2023/06/18 10:38:47;;;;;;;8.82;5.80;;;;;;;;;;5071797;28;20410;-65
2023/06/18 10:41:13;;;;;;;20.67;6.60;;;;;;;;;;5053669;22;20041;-63
2023/06/18 10:43:41;;;;;;;24.60;7.55;;;;;;;;;;5066906;28;20141;-63
2023/06/18 10:46:13;;;;;;;28.08;7.38;;;;;;;;;;5036300;28;20042;-63
2023/06/18 10:48:38;;;;;;;38.63;9.05;;;;;;;;;;5036391;28;20037;-63
2023/06/18 10:51:17;;;;;;;56.35;9.85;;;;;;;;;;5026081;28;20037;-62
2023/06/18 10:53:43;;;;;;;25.45;7.60;;;;;;;;;;5042958;28;20036;-61
2023/06/18 10:56:08;;;;;;;27.85;7.55;;;;;;;;;;5036108;28;20112;-63
2023/06/18 10:58:34;;;;;;;36.70;10.03;;;;;;;;;;5038559;28;20143;-62
2023/06/18 11:00:59;;;;;;;25.27;7.50;;;;;;;;;;5021840;28;20282;-63
2023/06/18 11:03:32;;;;;;;18.98;7.25;;;;;;;;;;5080147;22;20066;-63
2023/06/18 11:05:58;;;;;;;30.15;8.68;;;;;;;;;;5050042;28;20051;-65
2023/06/18 11:08:33;;;;;;;24.05;7.53;;;;;;;;;;5054437;28;20037;-66
2023/06/18 11:11:05;;;;;;;28.40;7.55;;;;;;;;;;5041577;28;20048;-67
2023/06/18 11:13:35;;;;;;;23.75;6.63;;;;;;;;;;5061706;28;20055;-64
2023/06/18 11:16:01;;;;;;;19.77;6.68;;;;;;;;;;5053017;28;20033;-65
2023/06/18 11:18:26;;;;;;;10.35;6.55;;;;;;;;;;5058090;28;20051;-65
2023/06/18 11:20:52;;;;;;;9.98;6.00;;;;;;;;;;5080258;28;20036;-64
2023/06/18 11:23:17;;;;;;;12.48;6.40;;;;;;;;;;5042023;28;20135;-62
2023/06/18 11:25:43;;;;;;;9.55;5.57;;;;;;;;;;5043641;28;20039;-63
2023/06/18 11:28:08;;;;;;;10.02;6.30;;;;;;;;;;5041459;28;20056;-66
2023/06/18 11:30:34;;;;;;;7.22;5.63;;;;;;;;;;5040506;28;20025;-63
2023/06/18 11:32:59;;;;;;;8.25;6.10;;;;;;;;;;5055395;28;20189;-62
2023/06/18 11:35:25;;;;;;;6.80;5.68;;;;;;;;;;5051023;28;20035;-65
2023/06/18 11:37:50;;;;;;;6.72;5.95;;;;;;;;;;5053807;28;20032;-64
2023/06/18 11:40:15;;;;;;;6.47;5.80;;;;;;;;;;5057743;28;20245;-64
2023/06/18 11:42:50;;;;;;;7.97;5.63;;;;;;;;;;5051148;28;20048;-63
2023/06/18 11:45:17;;;;;;;7.28;6.32;;;;;;;;;;5058699;28;20062;-63
2023/06/18 11:47:49;;;;;;;7.80;5.75;;;;;;;;;;5049778;28;20028;-66
2023/06/18 11:50:15;;;;;;;8.43;5.72;;;;;;;;;;5065739;28;20104;-63
2023/06/18 11:52:40;;;;;;;7.18;5.97;;;;;;;;;;5045355;28;20133;-65
2023/06/18 11:55:06;;;;;;;8.10;6.38;;;;;;;;;;5063588;28;20052;-66
2023/06/18 11:57:31;;;;;;;7.80;6.72;;;;;;;;;;5089220;23;20049;-67
2023/06/18 11:59:57;;;;;;;10.10;7.50;;;;;;;;;;5025643;28;20061;-67
2023/06/18 12:02:26;;;;;;;7.50;5.70;;;;;;;;;;5040703;22;20045;-72
2023/06/18 12:04:51;;;;;;;10.73;7.07;;;;;;;;;;5015126;28;20033;-77
2023/06/18 12:07:16;;;;;;;7.93;6.53;;;;;;;;;;5036051;28;20055;-71
2023/06/18 12:09:42;;;;;;;7.35;6.20;;;;;;;;;;5038522;28;20025;-69
2023/06/18 12:12:20;;;;;;;8.32;6.22;;;;;;;;;;5037492;28;20039;-69
2023/06/18 12:14:51;;;;;;;7.28;6.13;;;;;;;;;;5038419;28;20514;-70
2023/06/18 12:17:18;;;;;;;6.95;6.15;;;;;;;;;;5035709;28;20585;-69
2023/06/18 12:19:46;;;;;;;10.43;6.60;;;;;;;;;;5033780;28;20037;-70
2023/06/18 12:22:12;;;;;;;7.80;5.72;;;;;;;;;;5035604;28;20704;-70
2023/06/18 12:24:38;;;;;;;7.80;5.65;;;;;;;;;;5037523;28;20033;-68
2023/06/18 12:27:04;;;;;;;6.70;5.50;;;;;;;;;;5037303;28;20682;-70
2023/06/18 12:29:29;;;;;;;6.53;5.25;;;;;;;;;;5012728;28;20148;-70
2023/06/18 12:32:04;;;;;;;5.60;4.80;;;;;;;;;;5017067;28;20589;-68
2023/06/18 12:34:32;;;;;;;5.85;5.07;;;;;;;;;;4998129;28;20787;-69
2023/06/18 12:36:57;;;;;;;7.45;5.18;;;;;;;;;;5034812;28;20457;-67
2023/06/18 12:39:23;;;;;;;5.83;5.10;;;;;;;;;;5035734;28;20351;-70
2023/06/18 12:41:48;;;;;;;5.90;5.10;;;;;;;;;;5036590;28;20299;-71
2023/06/18 12:44:13;;;;;;;5.97;4.93;;;;;;;;;;5033654;28;20032;-66
2023/06/18 12:46:38;;;;;;;6.63;4.80;;;;;;;;;;5052684;23;20594;-67
2023/06/18 12:49:07;;;;;;;6.93;4.87;;;;;;;;;;5048367;28;20724;-68
2023/06/18 12:51:42;;;;;;;7.10;5.38;;;;;;;;;;5035377;28;20029;-68
2023/06/18 12:54:14;;;;;;;5.80;4.80;;;;;;;;;;5050224;28;20045;-70
2023/06/18 12:56:49;;;;;;;5.90;4.57;;;;;;;;;;5049424;28;20131;-68
2023/06/18 12:59:16;;;;;;;5.88;4.60;;;;;;;;;;5036266;28;20043;-67
2023/06/18 13:01:43;;;;;;;5.93;4.72;;;;;;;;;;5027498;28;20056;-67
2023/06/18 13:04:09;;;;;;;6.53;4.95;;;;;;;;;;5032730;28;20044;-69
2023/06/18 13:06:34;;;;;;;6.47;4.43;;;;;;;;;;5052544;22;20053;-68
2023/06/18 13:09:00;;;;;;;5.37;4.50;;;;;;;;;;5070539;28;20032;-70
2023/06/18 13:11:25;;;;;;;5.00;4.50;;;;;;;;;;5057264;28;20076;-68
2023/06/18 13:13:50;;;;;;;6.10;4.50;;;;;;;;;;5049979;28;20824;-67
2023/06/18 13:16:16;;;;;;;5.47;4.78;;;;;;;;;;5070757;28;20314;-68
2023/06/18 13:18:41;;;;;;;6.15;5.15;;;;;;;;;;5069278;28;20029;-74
2023/06/18 13:21:06;;;;;;;6.10;5.10;;;;;;;;;;5069760;28;20074;-71
2023/06/18 13:23:32;;;;;;;5.57;4.70;;;;;;;;;;5062707;28;20289;-63
2023/06/18 13:25:57;;;;;;;6.20;4.53;;;;;;;;;;5076972;28;20032;-69
2023/06/18 13:28:22;;;;;;;6.20;5.05;;;;;;;;;;5070920;28;20051;-68
2023/06/18 13:30:47;;;;;;;5.40;4.90;;;;;;;;;;5069768;28;20568;-66
2023/06/18 13:33:13;;;;;;;6.32;5.13;;;;;;;;;;5077919;28;20306;-69
2023/06/18 13:35:39;;;;;;;7.40;5.18;;;;;;;;;;5076955;28;20136;-69
2023/06/18 13:38:04;;;;;;;5.85;5.25;;;;;;;;;;5066090;28;20043;-71
2023/06/18 13:40:29;;;;;;;7.03;5.93;;;;;;;;;;5078440;28;20383;-67
2023/06/18 13:42:54;;;;;;;6.60;5.03;;;;;;;;;;5064289;28;20675;-64
2023/06/18 13:45:20;;;;;;;7.32;5.40;;;;;;;;;;5080038;28;20079;-64
2023/06/18 13:47:45;;;;;;;10.35;5.60;;;;;;;;;;5075197;28;20036;-64
2023/06/18 13:50:11;;;;;;;9.37;5.87;;;;;;;;;;5068244;28;20040;-64
2023/06/18 13:52:36;;;;;;;18.67;5.82;;;;;;;;;;5075855;28;20043;-66
2023/06/18 13:55:02;;;;;;;11.93;5.73;;;;;;;;;;5083563;28;20033;-67
2023/06/18 13:57:27;;;;;;;11.27;5.65;;;;;;;;;;5074820;28;20032;-67
2023/06/18 13:59:52;;;;;;;12.00;5.60;;;;;;;;;;5080405;28;20515;-68
2023/06/18 14:02:17;;;;;;;8.77;5.10;;;;;;;;;;5080920;28;20286;-67
2023/06/18 14:04:43;;;;;;;8.82;4.93;;;;;;;;;;5058763;28;20032;-67
2023/06/18 14:07:08;;;;;;;8.55;4.47;;;;;;;;;;5080226;28;20048;-68
2023/06/18 14:09:34;;;;;;;10.02;5.15;;;;;;;;;;5077099;28;20040;-67
2023/06/18 14:11:59;;;;;;;6.47;4.88;;;;;;;;;;5064729;28;20127;-65
2023/06/18 14:14:25;;;;;;;6.15;4.93;;;;;;;;;;5065023;28;20075;-65
2023/06/18 14:16:51;;;;;;;6.27;4.70;;;;;;;;;;5064185;28;20039;-66
2023/06/18 14:19:16;;;;;;;5.88;4.50;;;;;;;;;;5063854;28;20740;-70
2023/06/18 14:21:42;;;;;;;8.73;4.80;;;;;;;;;;5079464;28;20035;-69
2023/06/18 14:24:07;;;;;;;8.07;5.30;;;;;;;;;;5090281;28;20047;-69
2023/06/18 14:26:32;;;;;;;5.55;4.18;;;;;;;;;;5066484;28;20032;-68
2023/06/18 14:28:58;;;;;;;6.82;4.68;;;;;;;;;;5086732;28;20454;-66
2023/06/18 14:31:23;;;;;;;7.53;4.25;;;;;;;;;;5073904;28;20043;-68
2023/06/18 14:33:48;;;;;;;6.35;4.55;;;;;;;;;;5066967;28;20150;-65